createdAt,value
2022-08-29T00:00:41.918Z,99.99
2022-08-29T00:01:41.280Z,99.99
2022-08-29T00:02:41.190Z,99.99
2022-08-29T00:03:43.197Z,99.99
2022-08-29T00:04:42.347Z,99.99
2022-08-29T00:05:42.501Z,99.99
2022-08-29T00:06:41.067Z,99.99
2022-08-29T00:07:41.074Z,99.99
2022-08-29T00:08:41.059Z,99.99
2022-08-29T00:09:41.876Z,99.99
2022-08-29T00:10:41.068Z,99.99
2022-08-29T00:11:48.672Z,99.99
2022-08-29T00:12:41.084Z,99.99
2022-08-29T00:13:41.082Z,99.99
2022-08-29T00:14:41.076Z,99.99
2022-08-29T00:15:47.307Z,99.99
2022-08-29T00:16:41.206Z,99.99
2022-08-29T00:17:41.100Z,99.99
2022-08-29T00:18:41.104Z,99.99
2022-08-29T00:19:41.086Z,99.99
2022-08-29T00:20:41.094Z,99.99
2022-08-29T00:21:41.101Z,99.99
2022-08-29T00:22:41.091Z,99.99
2022-08-29T00:23:41.087Z,99.99
2022-08-29T00:24:41.093Z,99.99
2022-08-29T00:25:41.101Z,99.99
2022-08-29T00:26:43.928Z,99.99
2022-08-29T00:27:41.897Z,99.99
2022-08-29T00:28:41.099Z,99.99
2022-08-29T00:29:41.142Z,99.99
2022-08-29T00:30:41.101Z,99.99
2022-08-29T00:31:41.200Z,99.99
2022-08-29T00:32:41.124Z,99.99
2022-08-29T00:33:41.681Z,99.99
2022-08-29T00:34:41.112Z,99.99
2022-08-29T00:35:42.710Z,99.99
2022-08-29T00:36:41.122Z,99.99
2022-08-29T00:37:44.224Z,99.99
2022-08-29T00:38:44.064Z,99.99
2022-08-29T00:39:41.121Z,99.99
2022-08-29T00:40:41.357Z,99.99
2022-08-29T00:41:41.129Z,99.99
2022-08-29T00:42:41.129Z,99.99
2022-08-29T00:43:41.125Z,99.99
2022-08-29T00:44:41.129Z,99.99
2022-08-29T00:45:41.305Z,99.99
2022-08-29T00:46:41.131Z,99.99
2022-08-29T00:47:41.134Z,99.99
2022-08-29T00:48:41.149Z,99.99
2022-08-29T00:49:41.250Z,99.99
2022-08-29T00:50:41.141Z,99.99
2022-08-29T00:51:41.140Z,99.99
2022-08-29T00:52:41.173Z,99.99
2022-08-29T00:53:41.151Z,99.99
2022-08-29T00:54:41.180Z,99.99
2022-08-29T00:55:41.153Z,99.99
2022-08-29T00:56:41.149Z,99.99
2022-08-29T00:57:41.152Z,99.99
2022-08-29T00:58:41.155Z,99.99
2022-08-29T00:59:41.022Z,99.99
2022-08-29T01:00:41.257Z,99.99
2022-08-29T01:01:41.157Z,99.99
2022-08-29T01:02:43.029Z,99.99
2022-08-29T01:03:45.044Z,99.99
2022-08-29T01:04:41.177Z,99.99
2022-08-29T01:05:41.184Z,99.99
2022-08-29T01:06:41.178Z,99.99
2022-08-29T01:07:43.076Z,99.99
2022-08-29T01:08:41.176Z,99.99
2022-08-29T01:09:44.008Z,99.99
2022-08-29T01:10:41.173Z,99.99
2022-08-29T01:11:41.173Z,99.99
2022-08-29T01:12:41.211Z,99.99
2022-08-29T01:13:41.207Z,99.99
2022-08-29T01:14:41.225Z,99.99
2022-08-29T01:15:41.187Z,99.99
2022-08-29T01:16:41.377Z,99.99
2022-08-29T01:17:41.214Z,99.99
2022-08-29T01:18:41.228Z,99.99
2022-08-29T01:19:41.216Z,99.99
2022-08-29T01:20:43.993Z,99.99
2022-08-29T01:21:41.203Z,99.99
2022-08-29T01:22:41.200Z,99.99
2022-08-29T01:23:41.202Z,99.99
2022-08-29T01:24:41.243Z,99.99
2022-08-29T01:25:41.250Z,99.99
2022-08-29T01:26:41.200Z,99.99
2022-08-29T01:27:41.777Z,99.99
2022-08-29T01:28:41.209Z,99.99
2022-08-29T01:29:41.206Z,99.99
2022-08-29T01:30:41.216Z,99.99
2022-08-29T01:31:59.945Z,99.99
2022-08-29T01:32:41.212Z,99.99
2022-08-29T01:33:41.218Z,99.99
2022-08-29T01:34:41.218Z,99.99
2022-08-29T01:35:41.258Z,99.99
2022-08-29T01:36:41.303Z,99.99
2022-08-29T01:37:41.231Z,99.99
2022-08-29T01:38:41.275Z,99.99
2022-08-29T01:39:41.227Z,99.99
2022-08-29T01:40:41.389Z,99.99
2022-08-29T01:41:41.227Z,99.99
2022-08-29T01:42:44.103Z,99.99
2022-08-29T01:43:41.247Z,99.99
2022-08-29T01:44:41.241Z,99.99
2022-08-29T01:45:41.351Z,99.99
2022-08-29T01:46:41.287Z,99.99
2022-08-29T01:47:41.248Z,99.99
2022-08-29T01:48:41.244Z,99.99
2022-08-29T01:49:43.330Z,99.99
2022-08-29T01:50:41.278Z,99.99
2022-08-29T01:51:41.256Z,99.99
2022-08-29T01:52:41.273Z,99.99
2022-08-29T01:53:44.392Z,99.99
2022-08-29T01:54:41.286Z,99.99
2022-08-29T01:55:41.281Z,99.99
2022-08-29T01:56:41.256Z,99.99
2022-08-29T01:57:41.267Z,99.99
2022-08-29T01:58:41.259Z,99.99
2022-08-29T01:59:41.269Z,99.99
2022-08-29T02:00:41.430Z,99.99
2022-08-29T02:01:41.368Z,99.99
2022-08-29T02:02:42.570Z,99.99
2022-08-29T02:03:41.270Z,99.99
2022-08-29T02:04:41.267Z,99.99
2022-08-29T02:05:41.286Z,99.99
2022-08-29T02:06:41.276Z,99.99
2022-08-29T02:07:41.277Z,99.99
2022-08-29T02:08:41.275Z,99.99
2022-08-29T02:09:47.732Z,99.99
2022-08-29T02:10:41.303Z,99.99
2022-08-29T02:11:41.309Z,99.99
2022-08-29T02:12:41.288Z,99.99
2022-08-29T02:13:41.286Z,99.99
2022-08-29T02:14:41.296Z,99.99
2022-08-29T02:15:41.317Z,99.99
2022-08-29T02:16:41.496Z,99.99
2022-08-29T02:17:41.304Z,99.99
2022-08-29T02:18:41.299Z,99.99
2022-08-29T02:19:41.323Z,99.99
2022-08-29T02:20:42.249Z,99.99
2022-08-29T02:21:41.146Z,99.99
2022-08-29T02:22:41.339Z,99.99
2022-08-29T02:23:41.306Z,99.99
2022-08-29T02:24:41.311Z,99.99
2022-08-29T02:25:41.327Z,99.99
2022-08-29T02:26:41.329Z,99.99
2022-08-29T02:27:41.315Z,99.99
2022-08-29T02:28:41.308Z,99.99
2022-08-29T02:29:41.323Z,99.99
2022-08-29T02:30:41.338Z,99.99
2022-08-29T02:31:44.751Z,99.99
2022-08-29T02:32:41.325Z,99.99
2022-08-29T02:33:41.333Z,99.99
2022-08-29T02:34:42.448Z,99.99
2022-08-29T02:35:45.155Z,99.99
2022-08-29T02:36:43.986Z,99.99
2022-08-29T02:37:41.351Z,99.99
2022-08-29T02:38:41.332Z,99.99
2022-08-29T02:39:41.350Z,99.99
2022-08-29T02:40:41.456Z,99.99
2022-08-29T02:41:44.436Z,99.99
2022-08-29T02:42:44.427Z,99.99
2022-08-29T02:43:41.346Z,99.99
2022-08-29T02:44:41.342Z,99.99
2022-08-29T02:45:41.351Z,99.99
2022-08-29T02:46:41.566Z,99.99
2022-08-29T02:47:41.343Z,99.99
2022-08-29T02:48:41.362Z,99.99
2022-08-29T02:49:41.716Z,99.99
2022-08-29T02:50:41.352Z,99.99
2022-08-29T02:51:41.357Z,99.99
2022-08-29T02:52:41.355Z,99.99
2022-08-29T02:53:46.472Z,99.99
2022-08-29T02:54:41.366Z,99.99
2022-08-29T02:55:41.363Z,99.99
2022-08-29T02:56:41.365Z,99.99
2022-08-29T02:57:41.410Z,99.99
2022-08-29T02:58:41.369Z,99.99
2022-08-29T02:59:41.392Z,99.99
2022-08-29T03:00:41.453Z,99.99
2022-08-29T03:01:41.530Z,99.99
2022-08-29T03:02:41.380Z,99.99
2022-08-29T03:03:41.379Z,99.99
2022-08-29T03:04:44.389Z,99.99
2022-08-29T03:05:41.402Z,99.99
2022-08-29T03:06:41.384Z,99.99
2022-08-29T03:07:41.412Z,99.99
2022-08-29T03:08:41.399Z,99.99
2022-08-29T03:09:41.390Z,99.99
2022-08-29T03:10:41.382Z,99.99
2022-08-29T03:11:41.392Z,99.99
2022-08-29T03:12:41.411Z,99.99
2022-08-29T03:13:41.596Z,99.99
2022-08-29T03:14:41.398Z,99.99
2022-08-29T03:15:41.392Z,99.99
2022-08-29T03:16:41.516Z,99.99
2022-08-29T03:17:41.404Z,99.99
2022-08-29T03:18:41.408Z,99.99
2022-08-29T03:19:41.407Z,99.99
2022-08-29T03:20:41.413Z,99.99
2022-08-29T03:21:41.418Z,99.99
2022-08-29T03:22:41.403Z,99.99
2022-08-29T03:23:41.409Z,99.99
2022-08-29T03:24:41.425Z,99.99
2022-08-29T03:25:41.411Z,99.99
2022-08-29T03:26:41.434Z,99.99
2022-08-29T03:27:41.410Z,99.99
2022-08-29T03:28:41.421Z,99.99
2022-08-29T03:29:41.416Z,99.99
2022-08-29T03:30:41.424Z,99.99
2022-08-29T03:31:41.529Z,99.99
2022-08-29T03:32:41.426Z,99.99
2022-08-29T03:33:41.432Z,99.99
2022-08-29T03:34:41.433Z,99.99
2022-08-29T03:35:41.441Z,99.99
2022-08-29T03:36:45.302Z,99.99
2022-08-29T03:37:41.442Z,99.99
2022-08-29T03:38:41.438Z,99.99
2022-08-29T03:39:41.432Z,99.99
2022-08-29T03:40:41.621Z,99.99
2022-08-29T03:41:41.466Z,99.99
2022-08-29T03:42:41.443Z,99.99
2022-08-29T03:43:41.445Z,99.99
2022-08-29T03:44:41.444Z,99.99
2022-08-29T03:45:41.452Z,99.99
2022-08-29T03:46:41.642Z,99.99
2022-08-29T03:47:44.564Z,99.99
2022-08-29T03:48:41.459Z,99.99
2022-08-29T03:49:41.461Z,99.99
2022-08-29T03:50:41.456Z,99.99
2022-08-29T03:51:41.478Z,99.99
2022-08-29T03:52:41.593Z,99.99
2022-08-29T03:53:41.462Z,99.99
2022-08-29T03:54:41.464Z,99.99
2022-08-29T03:55:41.464Z,99.99
2022-08-29T03:56:41.494Z,99.99
2022-08-29T03:57:41.470Z,99.99
2022-08-29T03:58:45.075Z,99.99
2022-08-29T03:59:41.472Z,99.99
2022-08-29T04:00:41.474Z,99.99
2022-08-29T04:01:41.615Z,99.99
2022-08-29T04:02:41.584Z,99.99
2022-08-29T04:03:41.475Z,99.99
2022-08-29T04:04:41.844Z,99.99
2022-08-29T04:05:41.325Z,99.99
2022-08-29T04:06:41.524Z,99.99
2022-08-29T04:07:41.500Z,99.99
2022-08-29T04:08:41.490Z,99.99
2022-08-29T04:09:44.522Z,99.99
2022-08-29T04:10:41.505Z,99.99
2022-08-29T04:11:41.509Z,99.99
2022-08-29T04:12:41.516Z,99.99
2022-08-29T04:13:41.496Z,99.99
2022-08-29T04:14:41.571Z,99.99
2022-08-29T04:15:41.655Z,99.99
2022-08-29T04:16:41.524Z,99.99
2022-08-29T04:17:55.652Z,99.99
2022-08-29T04:18:41.510Z,99.99
2022-08-29T04:19:41.511Z,99.99
2022-08-29T04:20:44.259Z,99.99
2022-08-29T04:21:41.529Z,99.99
2022-08-29T04:22:41.541Z,99.99
2022-08-29T04:23:41.518Z,99.99
2022-08-29T04:24:42.180Z,99.99
2022-08-29T04:25:41.525Z,99.99
2022-08-29T04:26:41.572Z,99.99
2022-08-29T04:27:41.522Z,99.99
2022-08-29T04:28:41.525Z,99.99
2022-08-29T04:29:41.526Z,99.99
2022-08-29T04:30:41.528Z,99.99
2022-08-29T04:31:45.090Z,99.99
2022-08-29T04:32:41.530Z,99.99
2022-08-29T04:33:41.533Z,99.99
2022-08-29T04:34:41.535Z,99.99
2022-08-29T04:35:41.538Z,99.99
2022-08-29T04:36:41.530Z,99.99
2022-08-29T04:37:41.541Z,99.99
2022-08-29T04:38:41.544Z,99.99
2022-08-29T04:39:41.542Z,99.99
2022-08-29T04:40:41.723Z,99.99
2022-08-29T04:41:41.549Z,99.99
2022-08-29T04:42:41.554Z,99.99
2022-08-29T04:43:41.554Z,99.99
2022-08-29T04:44:41.557Z,99.99
2022-08-29T04:45:41.555Z,99.99
2022-08-29T04:46:41.728Z,99.99
2022-08-29T04:47:44.367Z,99.99
2022-08-29T04:48:41.561Z,99.99
2022-08-29T04:49:41.553Z,99.99
2022-08-29T04:50:41.564Z,99.99
2022-08-29T04:51:41.562Z,99.99
2022-08-29T04:52:41.558Z,99.99
2022-08-29T04:53:41.563Z,99.99
2022-08-29T04:54:41.573Z,99.99
2022-08-29T04:55:42.036Z,99.99
2022-08-29T04:56:47.071Z,99.99
2022-08-29T04:57:41.576Z,99.99
2022-08-29T04:58:46.328Z,99.99
2022-08-29T04:59:41.579Z,99.99
2022-08-29T05:00:41.574Z,99.99
2022-08-29T05:01:44.435Z,99.99
2022-08-29T05:02:41.666Z,99.99
2022-08-29T05:03:41.582Z,99.99
2022-08-29T05:04:41.590Z,99.99
2022-08-29T05:05:41.668Z,99.99
2022-08-29T05:06:41.594Z,99.99
2022-08-29T05:07:41.607Z,99.99
2022-08-29T05:08:41.589Z,99.99
2022-08-29T05:09:44.611Z,99.99
2022-08-29T05:10:41.595Z,99.99
2022-08-29T05:11:41.596Z,99.99
2022-08-29T05:12:41.619Z,99.99
2022-08-29T05:13:44.946Z,99.99
2022-08-29T05:14:41.602Z,99.99
2022-08-29T05:15:41.704Z,99.99
2022-08-29T05:16:41.610Z,99.99
2022-08-29T05:17:41.637Z,99.99
2022-08-29T05:18:41.617Z,99.99
2022-08-29T05:19:47.534Z,99.99
2022-08-29T05:20:44.443Z,99.99
2022-08-29T05:21:41.623Z,99.99
2022-08-29T05:22:41.635Z,99.99
2022-08-29T05:23:41.620Z,99.99
2022-08-29T05:24:41.620Z,99.99
2022-08-29T05:25:41.620Z,99.99
2022-08-29T05:26:41.620Z,99.99
2022-08-29T05:27:41.644Z,99.99
2022-08-29T05:28:41.627Z,99.99
2022-08-29T05:29:41.631Z,99.99
2022-08-29T05:30:41.675Z,99.99
2022-08-29T05:31:47.758Z,99.99
2022-08-29T05:32:41.680Z,99.99
2022-08-29T05:33:41.644Z,99.99
2022-08-29T05:34:41.636Z,99.99
2022-08-29T05:35:41.640Z,99.99
2022-08-29T05:36:41.664Z,99.99
2022-08-29T05:37:41.660Z,99.99
2022-08-29T05:38:41.642Z,99.99
2022-08-29T05:39:41.649Z,99.99
2022-08-29T05:40:41.751Z,99.99
2022-08-29T05:41:41.653Z,99.99
2022-08-29T05:42:41.678Z,99.99
2022-08-29T05:43:41.660Z,99.99
2022-08-29T05:44:41.655Z,99.99
2022-08-29T05:45:41.670Z,99.99
2022-08-29T05:46:41.756Z,99.99
2022-08-29T05:47:41.673Z,99.99
2022-08-29T05:48:41.702Z,99.99
2022-08-29T05:49:41.673Z,99.99
2022-08-29T05:50:41.674Z,99.99
2022-08-29T05:51:42.265Z,99.99
2022-08-29T05:52:41.702Z,99.99
2022-08-29T05:53:41.666Z,99.99
2022-08-29T05:54:41.681Z,99.99
2022-08-29T05:55:42.668Z,99.99
2022-08-29T05:56:41.671Z,99.99
2022-08-29T05:57:41.697Z,99.99
2022-08-29T05:58:41.681Z,99.99
2022-08-29T05:59:41.683Z,99.99
2022-08-29T06:00:43.228Z,99.99
2022-08-29T06:01:41.683Z,99.99
2022-08-29T06:02:42.114Z,99.99
2022-08-29T06:03:48.304Z,99.99
2022-08-29T06:04:41.695Z,99.99
2022-08-29T06:05:41.697Z,99.99
2022-08-29T06:06:41.692Z,99.99
2022-08-29T06:07:41.715Z,99.99
2022-08-29T06:08:41.700Z,99.99
2022-08-29T06:09:41.699Z,99.99
2022-08-29T06:10:41.700Z,99.99
2022-08-29T06:11:41.742Z,99.99
2022-08-29T06:12:41.719Z,99.99
2022-08-29T06:13:41.713Z,99.99
2022-08-29T06:14:50.049Z,99.99
2022-08-29T06:15:41.827Z,99.99
2022-08-29T06:16:41.714Z,99.99
2022-08-29T06:17:41.726Z,99.99
2022-08-29T06:18:41.711Z,99.99
2022-08-29T06:19:41.729Z,99.99
2022-08-29T06:20:41.720Z,99.99
2022-08-29T06:21:41.725Z,99.99
2022-08-29T06:22:42.828Z,99.99
2022-08-29T06:23:41.722Z,99.99
2022-08-29T06:24:42.611Z,99.99
2022-08-29T06:25:46.413Z,99.99
2022-08-29T06:26:41.731Z,99.99
2022-08-29T06:27:41.749Z,99.99
2022-08-29T06:28:41.735Z,99.99
2022-08-29T06:29:46.075Z,99.99
2022-08-29T06:30:41.851Z,99.99
2022-08-29T06:31:41.760Z,99.99
2022-08-29T06:32:41.756Z,99.99
2022-08-29T06:33:41.746Z,99.99
2022-08-29T06:34:41.742Z,99.99
2022-08-29T06:35:41.751Z,99.99
2022-08-29T06:36:44.835Z,99.99
2022-08-29T06:37:41.776Z,99.99
2022-08-29T06:38:41.749Z,99.99
2022-08-29T06:39:41.752Z,99.99
2022-08-29T06:40:41.891Z,99.99
2022-08-29T06:41:41.594Z,99.99
2022-08-29T06:42:41.784Z,99.99
2022-08-29T06:43:41.759Z,99.99
2022-08-29T06:44:46.676Z,99.99
2022-08-29T06:45:41.766Z,99.99
2022-08-29T06:46:41.878Z,99.99
2022-08-29T06:47:44.858Z,99.99
2022-08-29T06:48:41.770Z,99.99
2022-08-29T06:49:41.768Z,99.99
2022-08-29T06:50:45.880Z,99.99
2022-08-29T06:51:41.773Z,99.99
2022-08-29T06:52:42.455Z,99.99
2022-08-29T06:53:42.533Z,99.99
2022-08-29T06:54:42.192Z,99.99
2022-08-29T06:55:41.784Z,99.99
2022-08-29T06:56:44.634Z,99.99
2022-08-29T06:57:41.799Z,99.99
2022-08-29T06:58:41.794Z,99.99
2022-08-29T06:59:41.797Z,99.99
2022-08-29T07:00:41.808Z,99.99
2022-08-29T07:01:41.919Z,99.99
2022-08-29T07:02:41.986Z,99.99
2022-08-29T07:03:41.799Z,99.99
2022-08-29T07:04:41.798Z,99.99
2022-08-29T07:05:41.858Z,99.99
2022-08-29T07:06:41.807Z,99.99
2022-08-29T07:07:41.826Z,99.99
2022-08-29T07:08:57.538Z,99.99
2022-08-29T07:09:41.808Z,99.41
2022-08-29T07:10:41.810Z,99.94
2022-08-29T07:11:43.597Z,99.5
2022-08-29T07:12:41.837Z,98.44
2022-08-29T07:13:41.845Z,98.15
2022-08-29T07:14:41.846Z,96.94
2022-08-29T07:15:41.969Z,96.75
2022-08-29T07:16:41.820Z,96.61
2022-08-29T07:17:41.842Z,95.78
2022-08-29T07:18:41.822Z,95.93
2022-08-29T07:19:43.301Z,95.59
2022-08-29T07:20:41.831Z,93.75
2022-08-29T07:21:41.842Z,94.53
2022-08-29T07:22:41.847Z,95.73
2022-08-29T07:23:41.836Z,94.13
2022-08-29T07:24:41.848Z,93.36
2022-08-29T07:25:44.960Z,93.17
2022-08-29T07:26:41.836Z,92.58
2022-08-29T07:27:41.865Z,92.49
2022-08-29T07:28:47.914Z,92.44
2022-08-29T07:29:41.843Z,92.63
2022-08-29T07:30:42.076Z,93.16
2022-08-29T07:31:42.005Z,92.49
2022-08-29T07:32:42.030Z,91.9
2022-08-29T07:33:41.854Z,92.77
2022-08-29T07:34:41.851Z,92.58
2022-08-29T07:35:41.867Z,92.29
2022-08-29T07:36:44.796Z,92.33
2022-08-29T07:37:41.898Z,91.95
2022-08-29T07:38:41.883Z,91.27
2022-08-29T07:39:41.867Z,90.88
2022-08-29T07:40:42.015Z,90.98
2022-08-29T07:41:41.912Z,90.83
2022-08-29T07:42:41.894Z,91.37
2022-08-29T07:43:41.872Z,90.88
2022-08-29T07:44:41.882Z,91.22
2022-08-29T07:45:42.035Z,91.41
2022-08-29T07:46:41.880Z,89.47
2022-08-29T07:47:45.481Z,90.25
2022-08-29T07:48:41.884Z,89.47
2022-08-29T07:49:44.256Z,90.06
2022-08-29T07:50:41.890Z,90.2
2022-08-29T07:51:46.802Z,90.34
2022-08-29T07:52:41.912Z,89.57
2022-08-29T07:53:41.892Z,91.17
2022-08-29T07:54:41.894Z,91.17
2022-08-29T07:55:41.892Z,90.5
2022-08-29T07:56:41.892Z,90.98
2022-08-29T07:57:42.430Z,90.34
2022-08-29T07:58:45.127Z,90.3
2022-08-29T07:59:41.896Z,89.43
2022-08-29T08:00:41.930Z,90.2
2022-08-29T08:01:42.022Z,89.72
2022-08-29T08:02:42.032Z,89.86
2022-08-29T08:03:41.913Z,89.62
2022-08-29T08:04:41.910Z,89.76
2022-08-29T08:05:41.912Z,90.16
2022-08-29T08:06:41.919Z,89.67
2022-08-29T08:07:42.582Z,90.4
2022-08-29T08:08:41.921Z,89.76
2022-08-29T08:09:41.916Z,89.42
2022-08-29T08:10:41.923Z,89.09
2022-08-29T08:11:41.928Z,88.89
2022-08-29T08:12:41.941Z,89.9
2022-08-29T08:13:41.940Z,90.3
2022-08-29T08:14:41.926Z,89.67
2022-08-29T08:15:41.929Z,89.23
2022-08-29T08:16:46.999Z,88.35
2022-08-29T08:17:46.135Z,88.98
2022-08-29T08:18:41.939Z,88.3
2022-08-29T08:19:41.939Z,88.98
2022-08-29T08:20:41.940Z,87.86
2022-08-29T08:21:51.614Z,87.37
2022-08-29T08:22:41.962Z,87.23
2022-08-29T08:23:41.948Z,86.6
2022-08-29T08:24:41.944Z,86.94
2022-08-29T08:25:41.945Z,87.23
2022-08-29T08:26:41.953Z,86.89
2022-08-29T08:27:46.008Z,86.5
2022-08-29T08:28:41.953Z,86.69
2022-08-29T08:29:41.989Z,85.96
2022-08-29T08:30:45.122Z,86.3
2022-08-29T08:31:42.129Z,87.34
2022-08-29T08:32:46.962Z,86.55
2022-08-29T08:33:41.964Z,86.99
2022-08-29T08:34:41.965Z,86.46
2022-08-29T08:35:46.782Z,86.16
2022-08-29T08:36:43.738Z,86.26
2022-08-29T08:37:41.992Z,86.4
2022-08-29T08:38:41.989Z,85.24
2022-08-29T08:39:41.992Z,86.01
2022-08-29T08:40:42.140Z,86.07
2022-08-29T08:41:44.848Z,85.82
2022-08-29T08:42:42.014Z,84.89
2022-08-29T08:43:41.981Z,84.7
2022-08-29T08:44:42.013Z,84.11
2022-08-29T08:45:42.162Z,84.93
2022-08-29T08:46:42.003Z,84.5
2022-08-29T08:47:42.009Z,85.18
2022-08-29T08:48:42.008Z,85.38
2022-08-29T08:49:42.024Z,85.28
2022-08-29T08:50:42.021Z,84.55
2022-08-29T08:51:42.070Z,84.64
2022-08-29T08:52:44.869Z,84.6
2022-08-29T08:53:42.004Z,84.6
2022-08-29T08:54:42.024Z,83.96
2022-08-29T08:55:42.005Z,83.86
2022-08-29T08:56:42.012Z,83.47
2022-08-29T08:57:42.029Z,83.37
2022-08-29T08:58:42.012Z,82.54
2022-08-29T08:59:42.054Z,82.06
2022-08-29T09:00:42.016Z,82
2022-08-29T09:01:42.246Z,82.2
2022-08-29T09:02:42.168Z,81.86
2022-08-29T09:03:45.029Z,80.35
2022-08-29T09:04:42.037Z,80.44
2022-08-29T09:05:45.017Z,80.44
2022-08-29T09:06:42.044Z,81.02
2022-08-29T09:07:42.063Z,81.12
2022-08-29T09:08:42.146Z,80.48
2022-08-29T09:09:42.032Z,80.29
2022-08-29T09:10:42.037Z,80.58
2022-08-29T09:11:42.038Z,80.48
2022-08-29T09:12:42.052Z,80.23
2022-08-29T09:13:42.051Z,80.64
2022-08-29T09:14:45.073Z,80.68
2022-08-29T09:15:42.048Z,80
2022-08-29T09:16:42.133Z,79.64
2022-08-29T09:17:42.065Z,80.19
2022-08-29T09:18:42.076Z,79.64
2022-08-29T09:19:42.052Z,79.35
2022-08-29T09:20:42.056Z,79.35
2022-08-29T09:21:43.925Z,79.45
2022-08-29T09:22:42.081Z,79.06
2022-08-29T09:23:42.064Z,79.49
2022-08-29T09:24:42.068Z,78.42
2022-08-29T09:25:45.117Z,78.42
2022-08-29T09:26:42.061Z,78.85
2022-08-29T09:27:42.091Z,78.52
2022-08-29T09:28:42.077Z,78.52
2022-08-29T09:29:42.180Z,79.57
2022-08-29T09:30:42.072Z,79.86
2022-08-29T09:31:42.175Z,80.44
2022-08-29T09:32:42.088Z,80.35
2022-08-29T09:33:42.310Z,80.52
2022-08-29T09:35:10.221Z,80.19
2022-08-29T09:35:42.079Z,79.64
2022-08-29T09:36:42.114Z,79.1
2022-08-29T09:37:42.098Z,79.2
2022-08-29T09:38:42.128Z,78.94
2022-08-29T09:39:42.087Z,78.42
2022-08-29T09:40:42.373Z,78.65
2022-08-29T09:41:42.089Z,78.61
2022-08-29T09:42:42.132Z,78.52
2022-08-29T09:43:42.102Z,78.91
2022-08-29T09:44:42.103Z,78.32
2022-08-29T09:45:42.212Z,77.58
2022-08-29T09:46:42.107Z,78.16
2022-08-29T09:47:42.129Z,78.42
2022-08-29T09:48:42.143Z,78.19
2022-08-29T09:49:42.111Z,78.61
2022-08-29T09:50:42.151Z,77.87
2022-08-29T09:51:42.115Z,77.39
2022-08-29T09:52:42.620Z,77.09
2022-08-29T09:53:42.120Z,78.11
2022-08-29T09:54:42.123Z,77.26
2022-08-29T09:55:42.121Z,77.36
2022-08-29T09:56:42.145Z,76.87
2022-08-29T09:57:42.137Z,77.36
2022-08-29T09:58:42.738Z,76.97
2022-08-29T09:59:48.114Z,76.87
2022-08-29T10:00:42.492Z,75.6
2022-08-29T10:01:42.262Z,76.39
2022-08-29T10:02:43.493Z,76.72
2022-08-29T10:03:45.264Z,75.93
2022-08-29T10:04:42.139Z,76.42
2022-08-29T10:05:42.162Z,75.88
2022-08-29T10:06:52.136Z,76.42
2022-08-29T10:07:42.144Z,76.19
2022-08-29T10:08:42.145Z,76.32
2022-08-29T10:09:42.155Z,76.58
2022-08-29T10:10:42.152Z,76.39
2022-08-29T10:11:42.159Z,75.6
2022-08-29T10:12:42.156Z,76.62
2022-08-29T10:13:42.161Z,76.54
2022-08-29T10:14:52.706Z,76.31
2022-08-29T10:15:53.255Z,76.45
2022-08-29T10:16:42.407Z,76.48
2022-08-29T10:17:42.171Z,76.97
2022-08-29T10:18:42.169Z,78.24
2022-08-29T10:19:42.185Z,78.05
2022-08-29T10:20:42.180Z,77.42
2022-08-29T10:21:42.168Z,77.81
2022-08-29T10:22:42.188Z,78.13
2022-08-29T10:23:42.178Z,77.97
2022-08-29T10:24:42.175Z,77.81
2022-08-29T10:25:45.237Z,78.52
2022-08-29T10:26:42.178Z,78.36
2022-08-29T10:27:42.182Z,78.06
2022-08-29T10:28:42.196Z,78.59
2022-08-29T10:29:42.194Z,78.05
2022-08-29T10:30:42.198Z,77.52
2022-08-29T10:31:42.279Z,77.13
2022-08-29T10:32:42.191Z,77.17
2022-08-29T10:33:42.203Z,77.17
2022-08-29T10:34:43.239Z,78.05
2022-08-29T10:35:42.206Z,78.14
2022-08-29T10:36:42.249Z,77.2
2022-08-29T10:37:42.205Z,77.11
2022-08-29T10:38:42.218Z,76.07
2022-08-29T10:39:42.239Z,76.76
2022-08-29T10:40:45.895Z,76.17
2022-08-29T10:41:42.214Z,76.46
2022-08-29T10:42:42.213Z,76.23
2022-08-29T10:43:42.257Z,76.27
2022-08-29T10:44:42.219Z,76.76
2022-08-29T10:45:42.364Z,75.2
2022-08-29T10:46:42.225Z,75.74
2022-08-29T10:47:42.220Z,75.93
2022-08-29T10:48:42.239Z,76.74
2022-08-29T10:49:47.149Z,75.37
2022-08-29T10:50:47.144Z,75.15
2022-08-29T10:51:42.232Z,75.84
2022-08-29T10:52:42.231Z,76.19
2022-08-29T10:53:42.237Z,76.19
2022-08-29T10:54:42.245Z,76.35
2022-08-29T10:55:42.236Z,76.64
2022-08-29T10:56:42.241Z,76.39
2022-08-29T10:57:45.055Z,76.52
2022-08-29T10:58:42.243Z,75.35
2022-08-29T10:59:42.238Z,76.29
2022-08-29T11:00:42.346Z,76.39
2022-08-29T11:01:42.451Z,76.03
2022-08-29T11:02:42.261Z,75.35
2022-08-29T11:03:42.349Z,75.35
2022-08-29T11:04:42.258Z,74.71
2022-08-29T11:05:42.264Z,75.25
2022-08-29T11:06:42.263Z,75.6
2022-08-29T11:07:42.266Z,77.39
2022-08-29T11:08:45.325Z,77.95
2022-08-29T11:09:42.264Z,77.2
2022-08-29T11:10:42.283Z,76.56
2022-08-29T11:11:42.272Z,74.71
2022-08-29T11:12:42.274Z,75.25
2022-08-29T11:13:42.306Z,75.39
2022-08-29T11:14:42.273Z,75.1
2022-08-29T11:15:42.279Z,74.44
2022-08-29T11:16:42.680Z,75
2022-08-29T11:17:42.281Z,75.68
2022-08-29T11:18:42.293Z,73.66
2022-08-29T11:19:45.061Z,74.05
2022-08-29T11:20:42.301Z,74.05
2022-08-29T11:21:42.296Z,75.43
2022-08-29T11:22:42.292Z,74.61
2022-08-29T11:23:42.294Z,74.35
2022-08-29T11:24:47.496Z,74.25
2022-08-29T11:25:42.298Z,73.73
2022-08-29T11:26:42.305Z,73.63
2022-08-29T11:27:42.306Z,74.05
2022-08-29T11:29:42.307Z,72.78
2022-08-29T11:30:48.020Z,72.39
2022-08-29T11:31:42.478Z,72.04
2022-08-29T11:32:42.323Z,72
2022-08-29T11:33:42.314Z,71.75
2022-08-29T11:34:42.311Z,71.75
2022-08-29T11:35:42.340Z,71.84
2022-08-29T11:36:42.320Z,71.65
2022-08-29T11:37:42.328Z,72.43
2022-08-29T11:38:42.321Z,73.02
2022-08-29T11:39:42.320Z,72.04
2022-08-29T11:41:45.614Z,73.02
2022-08-29T11:42:57.768Z,72.72
2022-08-29T11:43:42.333Z,73.18
2022-08-29T11:44:42.335Z,73.41
2022-08-29T11:45:42.337Z,72.92
2022-08-29T11:46:42.487Z,71.84
2022-08-29T11:47:43.559Z,71.55
2022-08-29T11:48:42.174Z,71.71
2022-08-29T11:49:42.341Z,72.3
2022-08-29T11:50:42.434Z,71.45
2022-08-29T11:51:42.351Z,71.36
2022-08-29T11:52:45.369Z,71.26
2022-08-29T11:53:42.369Z,70.54
2022-08-29T11:54:42.438Z,70.41
2022-08-29T11:55:42.364Z,70.15
2022-08-29T11:56:42.356Z,70.44
2022-08-29T11:57:42.365Z,71
2022-08-29T11:58:42.379Z,70.93
2022-08-29T11:59:42.366Z,71.32
2022-08-29T12:00:42.368Z,71.71
2022-08-29T12:01:42.489Z,71.39
2022-08-29T12:02:44.528Z,72.13
2022-08-29T12:03:42.548Z,72.42
2022-08-29T12:04:42.505Z,72.36
2022-08-29T12:05:42.381Z,72.36
2022-08-29T12:06:42.377Z,71.22
2022-08-29T12:07:42.376Z,72.88
2022-08-29T12:08:42.405Z,72.46
2022-08-29T12:09:42.442Z,72.95
2022-08-29T12:10:42.430Z,71.42
2022-08-29T12:11:43.007Z,72.17
2022-08-29T12:12:42.390Z,71.58
2022-08-29T12:13:42.407Z,72.07
2022-08-29T12:14:42.389Z,72.36
2022-08-29T12:15:42.394Z,71.88
2022-08-29T12:16:42.627Z,70.93
2022-08-29T12:18:04.083Z,70.93
2022-08-29T12:18:42.416Z,70.15
2022-08-29T12:19:45.573Z,70.38
2022-08-29T12:20:42.421Z,70.38
2022-08-29T12:21:42.415Z,70.15
2022-08-29T12:23:42.463Z,70.41
2022-08-29T12:24:42.412Z,70.96
2022-08-29T12:25:42.416Z,71.45
2022-08-29T12:26:42.416Z,71.19
2022-08-29T12:27:42.438Z,71.39
2022-08-29T12:28:42.440Z,70.51
2022-08-29T12:29:46.743Z,70.31
2022-08-29T12:30:45.648Z,70.08
2022-08-29T12:32:17.764Z,69.73
2022-08-29T12:32:42.674Z,68.85
2022-08-29T12:33:42.490Z,69.69
2022-08-29T12:34:44.149Z,69.79
2022-08-29T12:35:42.439Z,68.75
2022-08-29T12:36:54.263Z,67.71
2022-08-29T12:37:42.444Z,67.51
2022-08-29T12:38:44.878Z,67.41
2022-08-29T12:39:42.441Z,67.32
2022-08-29T12:40:42.602Z,67.15
2022-08-29T12:41:45.229Z,68.49
2022-08-29T12:42:42.453Z,67.64
2022-08-29T12:43:42.505Z,67.64
2022-08-29T12:44:42.759Z,66.96
2022-08-29T12:45:42.457Z,66.76
2022-08-29T12:46:42.706Z,67.05
2022-08-29T12:47:48.120Z,67.44
2022-08-29T12:48:42.490Z,68
2022-08-29T12:49:42.467Z,68.23
2022-08-29T12:50:42.473Z,68.59
2022-08-29T12:51:42.472Z,68.65
2022-08-29T12:52:45.287Z,68.98
2022-08-29T12:53:42.488Z,69.6
2022-08-29T12:54:42.480Z,69.5
2022-08-29T12:55:42.479Z,68.16
2022-08-29T12:56:42.476Z,67.64
2022-08-29T12:57:42.482Z,68.13